sensor_id;sensor_type;location;lat;lon;timestamp;temperature;humidity
6114;DHT22;3087;48.392;10.836;2023-05-29T00:01:13;14.50;90.80
6114;DHT22;3087;48.392;10.836;2023-05-29T00:03:38;14.40;91.30
6114;DHT22;3087;48.392;10.836;2023-05-29T00:06:04;14.40;91.00
6114;DHT22;3087;48.392;10.836;2023-05-29T00:08:31;14.50;90.80
6114;DHT22;3087;48.392;10.836;2023-05-29T00:10:57;14.60;91.00
6114;DHT22;3087;48.392;10.836;2023-05-29T00:13:23;15.00;91.60
6114;DHT22;3087;48.392;10.836;2023-05-29T00:15:48;14.30;91.30
6114;DHT22;3087;48.392;10.836;2023-05-29T00:18:14;14.20;91.70
6114;DHT22;3087;48.392;10.836;2023-05-29T00:20:40;14.10;91.70
6114;DHT22;3087;48.392;10.836;2023-05-29T00:23:05;14.10;91.80
6114;DHT22;3087;48.392;10.836;2023-05-29T00:25:32;14.10;91.80
6114;DHT22;3087;48.392;10.836;2023-05-29T00:27:58;14.10;91.70
6114;DHT22;3087;48.392;10.836;2023-05-29T00:30:24;14.10;92.00
6114;DHT22;3087;48.392;10.836;2023-05-29T00:32:50;14.30;91.70
6114;DHT22;3087;48.392;10.836;2023-05-29T00:35:17;14.20;91.60
6114;DHT22;3087;48.392;10.836;2023-05-29T00:37:43;14.30;91.40
6114;DHT22;3087;48.392;10.836;2023-05-29T00:40:10;14.50;91.60
6114;DHT22;3087;48.392;10.836;2023-05-29T00:42:36;14.30;91.40
6114;DHT22;3087;48.392;10.836;2023-05-29T00:45:02;14.40;91.30
6114;DHT22;3087;48.392;10.836;2023-05-29T00:47:28;14.30;91.50
6114;DHT22;3087;48.392;10.836;2023-05-29T00:49:56;14.30;91.40
6114;DHT22;3087;48.392;10.836;2023-05-29T00:52:23;14.30;91.50
6114;DHT22;3087;48.392;10.836;2023-05-29T00:54:50;14.20;91.50
6114;DHT22;3087;48.392;10.836;2023-05-29T00:57:16;14.40;91.50
6114;DHT22;3087;48.392;10.836;2023-05-29T00:59:42;14.30;91.60
6114;DHT22;3087;48.392;10.836;2023-05-29T01:02:09;14.20;91.60
6114;DHT22;3087;48.392;10.836;2023-05-29T01:04:35;14.30;91.60
6114;DHT22;3087;48.392;10.836;2023-05-29T01:07:01;14.50;91.90
6114;DHT22;3087;48.392;10.836;2023-05-29T01:09:31;14.20;91.80
6114;DHT22;3087;48.392;10.836;2023-05-29T01:14:48;14.10;91.90
6114;DHT22;3087;48.392;10.836;2023-05-29T01:20:36;14.20;91.70
6114;DHT22;3087;48.392;10.836;2023-05-29T01:23:08;14.40;91.80
6114;DHT22;3087;48.392;10.836;2023-05-29T01:28:16;14.10;91.80
6114;DHT22;3087;48.392;10.836;2023-05-29T01:30:45;14.10;91.80
6114;DHT22;3087;48.392;10.836;2023-05-29T01:33:11;14.10;91.80
6114;DHT22;3087;48.392;10.836;2023-05-29T01:35:37;14.50;92.00
6114;DHT22;3087;48.392;10.836;2023-05-29T01:38:02;14.10;91.70
6114;DHT22;3087;48.392;10.836;2023-05-29T01:40:28;14.10;91.80
6114;DHT22;3087;48.392;10.836;2023-05-29T01:42:54;14.00;91.80
6114;DHT22;3087;48.392;10.836;2023-05-29T01:45:20;14.10;91.80
6114;DHT22;3087;48.392;10.836;2023-05-29T01:47:46;14.00;91.80
6114;DHT22;3087;48.392;10.836;2023-05-29T01:50:15;14.00;91.80
6114;DHT22;3087;48.392;10.836;2023-05-29T01:52:43;14.20;91.90
6114;DHT22;3087;48.392;10.836;2023-05-29T01:55:09;14.00;91.60
6114;DHT22;3087;48.392;10.836;2023-05-29T01:57:35;14.00;91.70
6114;DHT22;3087;48.392;10.836;2023-05-29T02:00:03;14.00;91.70
6114;DHT22;3087;48.392;10.836;2023-05-29T02:02:38;13.90;91.60
6114;DHT22;3087;48.392;10.836;2023-05-29T02:05:08;14.00;91.60
6114;DHT22;3087;48.392;10.836;2023-05-29T02:07:34;13.90;91.60
6114;DHT22;3087;48.392;10.836;2023-05-29T02:10:02;13.90;91.70
6114;DHT22;3087;48.392;10.836;2023-05-29T02:12:28;13.90;91.70
6114;DHT22;3087;48.392;10.836;2023-05-29T02:14:54;14.00;91.80
6114;DHT22;3087;48.392;10.836;2023-05-29T02:17:19;13.80;91.60
6114;DHT22;3087;48.392;10.836;2023-05-29T02:19:45;14.20;91.70
6114;DHT22;3087;48.392;10.836;2023-05-29T02:22:10;13.90;91.70
6114;DHT22;3087;48.392;10.836;2023-05-29T02:24:36;13.80;91.80
6114;DHT22;3087;48.392;10.836;2023-05-29T02:27:01;13.60;91.70
6114;DHT22;3087;48.392;10.836;2023-05-29T02:29:28;13.70;92.00
6114;DHT22;3087;48.392;10.836;2023-05-29T02:31:54;13.70;92.10
6114;DHT22;3087;48.392;10.836;2023-05-29T02:34:19;13.70;92.00
6114;DHT22;3087;48.392;10.836;2023-05-29T02:36:48;13.60;91.80
6114;DHT22;3087;48.392;10.836;2023-05-29T02:39:14;13.70;91.80
6114;DHT22;3087;48.392;10.836;2023-05-29T02:41:39;14.00;91.80
6114;DHT22;3087;48.392;10.836;2023-05-29T02:44:05;14.30;91.90
6114;DHT22;3087;48.392;10.836;2023-05-29T02:46:31;14.00;91.50
6114;DHT22;3087;48.392;10.836;2023-05-29T02:48:56;14.50;91.70
6114;DHT22;3087;48.392;10.836;2023-05-29T02:51:22;14.00;91.50
6114;DHT22;3087;48.392;10.836;2023-05-29T02:53:47;13.80;91.70
6114;DHT22;3087;48.392;10.836;2023-05-29T02:56:14;13.70;91.80
6114;DHT22;3087;48.392;10.836;2023-05-29T02:58:41;13.70;91.80
6114;DHT22;3087;48.392;10.836;2023-05-29T03:01:07;13.70;91.80
6114;DHT22;3087;48.392;10.836;2023-05-29T03:03:33;13.90;91.60
6114;DHT22;3087;48.392;10.836;2023-05-29T03:05:58;13.70;91.60
6114;DHT22;3087;48.392;10.836;2023-05-29T03:08:24;13.70;91.70
6114;DHT22;3087;48.392;10.836;2023-05-29T03:10:51;13.70;91.70
6114;DHT22;3087;48.392;10.836;2023-05-29T03:13:17;13.70;91.90
6114;DHT22;3087;48.392;10.836;2023-05-29T03:15:44;13.70;92.20
6114;DHT22;3087;48.392;10.836;2023-05-29T03:18:09;13.30;92.20
6114;DHT22;3087;48.392;10.836;2023-05-29T03:20:35;13.30;92.30
6114;DHT22;3087;48.392;10.836;2023-05-29T03:23:01;13.40;92.40
6114;DHT22;3087;48.392;10.836;2023-05-29T03:25:26;13.30;92.20
6114;DHT22;3087;48.392;10.836;2023-05-29T03:27:52;13.40;92.00
6114;DHT22;3087;48.392;10.836;2023-05-29T03:30:17;13.30;92.30
6114;DHT22;3087;48.392;10.836;2023-05-29T03:32:45;13.60;92.50
6114;DHT22;3087;48.392;10.836;2023-05-29T03:35:10;13.20;92.50
6114;DHT22;3087;48.392;10.836;2023-05-29T03:37:36;13.20;92.40
6114;DHT22;3087;48.392;10.836;2023-05-29T03:40:02;13.50;92.40
6114;DHT22;3087;48.392;10.836;2023-05-29T03:42:28;13.30;92.40
6114;DHT22;3087;48.392;10.836;2023-05-29T03:44:56;13.40;92.30
6114;DHT22;3087;48.392;10.836;2023-05-29T03:47:22;13.40;92.40
6114;DHT22;3087;48.392;10.836;2023-05-29T03:49:47;13.40;92.60
6114;DHT22;3087;48.392;10.836;2023-05-29T03:52:13;15.30;93.50
6114;DHT22;3087;48.392;10.836;2023-05-29T03:54:39;13.30;92.90
6114;DHT22;3087;48.392;10.836;2023-05-29T03:57:04;13.50;92.80
6114;DHT22;3087;48.392;10.836;2023-05-29T03:59:32;13.30;92.60
6114;DHT22;3087;48.392;10.836;2023-05-29T04:01:57;13.30;92.70
6114;DHT22;3087;48.392;10.836;2023-05-29T04:04:23;13.70;93.10
6114;DHT22;3087;48.392;10.836;2023-05-29T04:06:48;13.30;92.80
6114;DHT22;3087;48.392;10.836;2023-05-29T04:09:14;13.80;93.10
6114;DHT22;3087;48.392;10.836;2023-05-29T04:11:40;13.80;92.90
6114;DHT22;3087;48.392;10.836;2023-05-29T04:14:06;13.40;92.80
6114;DHT22;3087;48.392;10.836;2023-05-29T04:16:32;13.40;92.80
6114;DHT22;3087;48.392;10.836;2023-05-29T04:18:58;13.50;92.90
6114;DHT22;3087;48.392;10.836;2023-05-29T04:21:23;13.50;93.20
6114;DHT22;3087;48.392;10.836;2023-05-29T04:23:49;14.00;93.10
6114;DHT22;3087;48.392;10.836;2023-05-29T04:26:15;13.70;93.00
6114;DHT22;3087;48.392;10.836;2023-05-29T04:28:40;13.70;93.00
6114;DHT22;3087;48.392;10.836;2023-05-29T04:31:08;13.80;93.10
6114;DHT22;3087;48.392;10.836;2023-05-29T04:33:33;14.10;93.10
6114;DHT22;3087;48.392;10.836;2023-05-29T04:36:02;14.00;93.40
6114;DHT22;3087;48.392;10.836;2023-05-29T04:38:29;13.90;93.00
6114;DHT22;3087;48.392;10.836;2023-05-29T04:40:55;14.30;93.10
6114;DHT22;3087;48.392;10.836;2023-05-29T04:43:24;14.20;93.10
6114;DHT22;3087;48.392;10.836;2023-05-29T04:45:52;14.20;93.00
6114;DHT22;3087;48.392;10.836;2023-05-29T04:48:18;14.30;93.10
6114;DHT22;3087;48.392;10.836;2023-05-29T04:50:43;14.50;93.00
6114;DHT22;3087;48.392;10.836;2023-05-29T04:53:09;14.50;93.00
6114;DHT22;3087;48.392;10.836;2023-05-29T04:55:36;14.90;93.10
6114;DHT22;3087;48.392;10.836;2023-05-29T04:58:02;14.70;93.00
6114;DHT22;3087;48.392;10.836;2023-05-29T05:00:27;14.70;93.00
6114;DHT22;3087;48.392;10.836;2023-05-29T05:02:53;14.80;93.10
6114;DHT22;3087;48.392;10.836;2023-05-29T05:05:19;14.90;93.10
6114;DHT22;3087;48.392;10.836;2023-05-29T05:07:45;15.00;93.00
6114;DHT22;3087;48.392;10.836;2023-05-29T05:10:11;15.10;92.90
6114;DHT22;3087;48.392;10.836;2023-05-29T05:12:40;15.10;93.20
6114;DHT22;3087;48.392;10.836;2023-05-29T05:15:06;15.30;92.90
6114;DHT22;3087;48.392;10.836;2023-05-29T05:17:31;15.40;93.00
6114;DHT22;3087;48.392;10.836;2023-05-29T05:19:57;15.50;92.80
6114;DHT22;3087;48.392;10.836;2023-05-29T05:22:22;13.50;91.80
6114;DHT22;3087;48.392;10.836;2023-05-29T05:24:48;15.60;92.70
6114;DHT22;3087;48.392;10.836;2023-05-29T05:27:14;15.80;92.90
6114;DHT22;3087;48.392;10.836;2023-05-29T05:29:39;15.90;92.80
6114;DHT22;3087;48.392;10.836;2023-05-29T05:32:05;16.30;92.70
6114;DHT22;3087;48.392;10.836;2023-05-29T05:34:31;16.00;93.00
6114;DHT22;3087;48.392;10.836;2023-05-29T05:36:56;16.20;93.00
6114;DHT22;3087;48.392;10.836;2023-05-29T05:39:22;16.20;93.30
6114;DHT22;3087;48.392;10.836;2023-05-29T05:41:48;16.60;93.50
6114;DHT22;3087;48.392;10.836;2023-05-29T05:44:13;16.30;93.50
6114;DHT22;3087;48.392;10.836;2023-05-29T05:46:39;16.30;93.30
6114;DHT22;3087;48.392;10.836;2023-05-29T05:49:04;16.50;93.00
6114;DHT22;3087;48.392;10.836;2023-05-29T05:51:30;16.60;92.50
6114;DHT22;3087;48.392;10.836;2023-05-29T05:53:56;16.80;92.40
6114;DHT22;3087;48.392;10.836;2023-05-29T05:56:21;16.90;92.40
6114;DHT22;3087;48.392;10.836;2023-05-29T05:58:47;17.00;92.20
6114;DHT22;3087;48.392;10.836;2023-05-29T06:01:15;17.00;91.90
6114;DHT22;3087;48.392;10.836;2023-05-29T06:03:40;17.10;92.10
6114;DHT22;3087;48.392;10.836;2023-05-29T06:06:06;17.20;91.80
6114;DHT22;3087;48.392;10.836;2023-05-29T06:08:33;17.30;91.50
6114;DHT22;3087;48.392;10.836;2023-05-29T06:10:58;17.40;91.50
6114;DHT22;3087;48.392;10.836;2023-05-29T06:13:24;17.50;91.30
6114;DHT22;3087;48.392;10.836;2023-05-29T06:15:49;17.70;91.30
6114;DHT22;3087;48.392;10.836;2023-05-29T06:18:15;17.70;91.30
6114;DHT22;3087;48.392;10.836;2023-05-29T06:20:41;18.10;91.70
6114;DHT22;3087;48.392;10.836;2023-05-29T06:23:07;17.90;91.30
6114;DHT22;3087;48.392;10.836;2023-05-29T06:25:32;17.90;91.40
6114;DHT22;3087;48.392;10.836;2023-05-29T06:28:01;17.90;92.00
6114;DHT22;3087;48.392;10.836;2023-05-29T06:30:27;18.00;92.80
6114;DHT22;3087;48.392;10.836;2023-05-29T06:32:53;18.00;92.80
6114;DHT22;3087;48.392;10.836;2023-05-29T06:35:20;18.00;92.60
6114;DHT22;3087;48.392;10.836;2023-05-29T06:37:46;18.10;92.50
6114;DHT22;3087;48.392;10.836;2023-05-29T06:40:13;18.20;92.30
6114;DHT22;3087;48.392;10.836;2023-05-29T06:42:38;18.10;91.50
6114;DHT22;3087;48.392;10.836;2023-05-29T06:45:04;18.10;91.50
6114;DHT22;3087;48.392;10.836;2023-05-29T06:47:30;18.10;91.60
6114;DHT22;3087;48.392;10.836;2023-05-29T06:49:56;18.20;91.60
6114;DHT22;3087;48.392;10.836;2023-05-29T06:52:21;18.20;91.10
6114;DHT22;3087;48.392;10.836;2023-05-29T06:54:47;18.20;91.30
6114;DHT22;3087;48.392;10.836;2023-05-29T06:57:12;18.20;91.50
6114;DHT22;3087;48.392;10.836;2023-05-29T06:59:38;18.20;91.30
6114;DHT22;3087;48.392;10.836;2023-05-29T07:02:04;18.30;91.10
6114;DHT22;3087;48.392;10.836;2023-05-29T07:04:29;18.40;91.20
6114;DHT22;3087;48.392;10.836;2023-05-29T07:06:55;18.40;91.30
6114;DHT22;3087;48.392;10.836;2023-05-29T07:09:21;18.50;91.10
6114;DHT22;3087;48.392;10.836;2023-05-29T07:11:46;18.70;91.20
6114;DHT22;3087;48.392;10.836;2023-05-29T07:14:12;18.70;90.80
6114;DHT22;3087;48.392;10.836;2023-05-29T07:16:38;18.80;91.10
6114;DHT22;3087;48.392;10.836;2023-05-29T07:19:03;18.80;91.30
6114;DHT22;3087;48.392;10.836;2023-05-29T07:21:29;18.80;90.90
6114;DHT22;3087;48.392;10.836;2023-05-29T07:23:54;18.90;91.10
6114;DHT22;3087;48.392;10.836;2023-05-29T07:26:20;19.10;91.30
6114;DHT22;3087;48.392;10.836;2023-05-29T07:28:48;19.00;90.60
6114;DHT22;3087;48.392;10.836;2023-05-29T07:31:14;19.20;90.80
6114;DHT22;3087;48.392;10.836;2023-05-29T07:33:40;19.10;90.90
6114;DHT22;3087;48.392;10.836;2023-05-29T07:36:07;19.10;91.10
6114;DHT22;3087;48.392;10.836;2023-05-29T07:38:33;19.20;90.70
6114;DHT22;3087;48.392;10.836;2023-05-29T07:40:58;19.40;90.80
6114;DHT22;3087;48.392;10.836;2023-05-29T07:43:24;19.40;90.40
6114;DHT22;3087;48.392;10.836;2023-05-29T07:45:50;19.40;90.70
6114;DHT22;3087;48.392;10.836;2023-05-29T07:48:15;19.50;90.50
6114;DHT22;3087;48.392;10.836;2023-05-29T07:50:41;19.40;90.30
6114;DHT22;3087;48.392;10.836;2023-05-29T07:53:06;19.50;90.60
6114;DHT22;3087;48.392;10.836;2023-05-29T07:55:33;19.50;90.70
6114;DHT22;3087;48.392;10.836;2023-05-29T07:57:59;19.50;90.70
6114;DHT22;3087;48.392;10.836;2023-05-29T08:00:25;19.50;90.70
6114;DHT22;3087;48.392;10.836;2023-05-29T08:02:51;19.70;90.70
6114;DHT22;3087;48.392;10.836;2023-05-29T08:05:17;19.80;90.40
6114;DHT22;3087;48.392;10.836;2023-05-29T08:07:43;19.80;90.30
6114;DHT22;3087;48.392;10.836;2023-05-29T08:10:09;20.00;90.90
6114;DHT22;3087;48.392;10.836;2023-05-29T08:12:35;20.20;90.40
6114;DHT22;3087;48.392;10.836;2023-05-29T08:15:02;20.30;90.40
6114;DHT22;3087;48.392;10.836;2023-05-29T08:17:27;20.30;90.20
6114;DHT22;3087;48.392;10.836;2023-05-29T08:19:53;20.30;90.20
6114;DHT22;3087;48.392;10.836;2023-05-29T08:22:19;20.40;90.00
6114;DHT22;3087;48.392;10.836;2023-05-29T08:24:45;20.60;90.00
6114;DHT22;3087;48.392;10.836;2023-05-29T08:27:10;20.60;89.30
6114;DHT22;3087;48.392;10.836;2023-05-29T08:29:36;20.50;88.70
6114;DHT22;3087;48.392;10.836;2023-05-29T08:32:04;20.60;88.50
6114;DHT22;3087;48.392;10.836;2023-05-29T08:34:29;20.50;88.80
6114;DHT22;3087;48.392;10.836;2023-05-29T08:36:56;20.60;89.00
6114;DHT22;3087;48.392;10.836;2023-05-29T08:39:21;20.60;89.10
6114;DHT22;3087;48.392;10.836;2023-05-29T08:41:59;20.80;89.00
6114;DHT22;3087;48.392;10.836;2023-05-29T08:44:30;20.90;89.00
6114;DHT22;3087;48.392;10.836;2023-05-29T08:46:57;20.90;89.50
6114;DHT22;3087;48.392;10.836;2023-05-29T08:49:29;21.00;89.60
6114;DHT22;3087;48.392;10.836;2023-05-29T08:52:05;21.00;89.00
6114;DHT22;3087;48.392;10.836;2023-05-29T08:54:34;21.20;89.00
6114;DHT22;3087;48.392;10.836;2023-05-29T08:57:00;21.40;89.00
6114;DHT22;3087;48.392;10.836;2023-05-29T08:59:27;21.60;88.80
6114;DHT22;3087;48.392;10.836;2023-05-29T09:01:54;21.80;87.70
6114;DHT22;3087;48.392;10.836;2023-05-29T09:04:20;21.70;86.80
6114;DHT22;3087;48.392;10.836;2023-05-29T09:06:46;21.80;87.80
6114;DHT22;3087;48.392;10.836;2023-05-29T09:09:12;21.70;87.00
6114;DHT22;3087;48.392;10.836;2023-05-29T09:11:38;21.80;88.20
6114;DHT22;3087;48.392;10.836;2023-05-29T09:14:04;21.80;88.50
6114;DHT22;3087;48.392;10.836;2023-05-29T09:16:30;21.90;88.20
6114;DHT22;3087;48.392;10.836;2023-05-29T09:19:06;21.80;87.70
6114;DHT22;3087;48.392;10.836;2023-05-29T09:21:34;22.00;87.80
6114;DHT22;3087;48.392;10.836;2023-05-29T09:24:04;22.20;86.90
6114;DHT22;3087;48.392;10.836;2023-05-29T09:26:34;22.50;86.90
6114;DHT22;3087;48.392;10.836;2023-05-29T09:28:59;22.40;87.30
6114;DHT22;3087;48.392;10.836;2023-05-29T09:31:27;22.60;86.40
6114;DHT22;3087;48.392;10.836;2023-05-29T09:33:53;22.60;87.30
6114;DHT22;3087;48.392;10.836;2023-05-29T09:36:20;22.90;86.50
6114;DHT22;3087;48.392;10.836;2023-05-29T09:38:47;22.70;85.50
6114;DHT22;3087;48.392;10.836;2023-05-29T09:41:13;22.80;85.60
6114;DHT22;3087;48.392;10.836;2023-05-29T09:43:45;23.20;85.60
6114;DHT22;3087;48.392;10.836;2023-05-29T09:46:15;23.30;84.20
6114;DHT22;3087;48.392;10.836;2023-05-29T09:48:42;23.20;84.10
6114;DHT22;3087;48.392;10.836;2023-05-29T09:51:21;23.20;84.30
6114;DHT22;3087;48.392;10.836;2023-05-29T09:53:48;23.20;83.90
6114;DHT22;3087;48.392;10.836;2023-05-29T09:56:16;23.30;83.50
6114;DHT22;3087;48.392;10.836;2023-05-29T09:58:44;23.30;83.10
6114;DHT22;3087;48.392;10.836;2023-05-29T10:01:13;23.40;82.60
6114;DHT22;3087;48.392;10.836;2023-05-29T10:03:41;23.90;81.80
6114;DHT22;3087;48.392;10.836;2023-05-29T10:06:10;24.30;81.80
6114;DHT22;3087;48.392;10.836;2023-05-29T10:08:47;24.70;81.40
6114;DHT22;3087;48.392;10.836;2023-05-29T10:11:21;25.60;81.80
6114;DHT22;3087;48.392;10.836;2023-05-29T10:13:52;25.80;79.40
6114;DHT22;3087;48.392;10.836;2023-05-29T10:16:20;26.50;80.00
6114;DHT22;3087;48.392;10.836;2023-05-29T10:18:53;27.30;78.70
6114;DHT22;3087;48.392;10.836;2023-05-29T10:21:21;27.10;77.20
6114;DHT22;3087;48.392;10.836;2023-05-29T10:23:49;27.30;77.80
6114;DHT22;3087;48.392;10.836;2023-05-29T10:26:19;26.90;77.20
6114;DHT22;3087;48.392;10.836;2023-05-29T10:31:30;26.50;76.70
6114;DHT22;3087;48.392;10.836;2023-05-29T10:34:23;27.30;76.60
6114;DHT22;3087;48.392;10.836;2023-05-29T10:37:08;27.50;75.90
6114;DHT22;3087;48.392;10.836;2023-05-29T10:39:35;27.90;75.60
6114;DHT22;3087;48.392;10.836;2023-05-29T10:42:00;27.70;73.90
6114;DHT22;3087;48.392;10.836;2023-05-29T10:49:23;27.80;74.70
6114;DHT22;3087;48.392;10.836;2023-05-29T10:51:49;28.10;73.80
6114;DHT22;3087;48.392;10.836;2023-05-29T10:54:15;28.00;72.80
6114;DHT22;3087;48.392;10.836;2023-05-29T10:56:44;27.70;72.70
6114;DHT22;3087;48.392;10.836;2023-05-29T10:59:17;28.10;72.90
6114;DHT22;3087;48.392;10.836;2023-05-29T11:01:43;28.60;72.20
6114;DHT22;3087;48.392;10.836;2023-05-29T11:06:41;29.40;70.50
6114;DHT22;3087;48.392;10.836;2023-05-29T11:12:22;29.40;71.30
6114;DHT22;3087;48.392;10.836;2023-05-29T11:15:06;30.20;69.80
6114;DHT22;3087;48.392;10.836;2023-05-29T11:20:49;30.90;70.50
6114;DHT22;3087;48.392;10.836;2023-05-29T11:25:26;31.00;69.10
6114;DHT22;3087;48.392;10.836;2023-05-29T11:27:52;30.60;68.70
6114;DHT22;3087;48.392;10.836;2023-05-29T11:30:21;30.80;68.80
6114;DHT22;3087;48.392;10.836;2023-05-29T11:32:48;29.90;68.60
6114;DHT22;3087;48.392;10.836;2023-05-29T11:35:14;30.00;69.00
6114;DHT22;3087;48.392;10.836;2023-05-29T11:37:41;29.80;67.20
6114;DHT22;3087;48.392;10.836;2023-05-29T11:40:11;30.20;67.40
6114;DHT22;3087;48.392;10.836;2023-05-29T11:42:46;31.40;67.80
6114;DHT22;3087;48.392;10.836;2023-05-29T11:45:19;31.40;67.60
6114;DHT22;3087;48.392;10.836;2023-05-29T11:50:19;30.40;68.30
6114;DHT22;3087;48.392;10.836;2023-05-29T11:52:46;31.50;66.30
6114;DHT22;3087;48.392;10.836;2023-05-29T11:55:12;31.60;64.60
6114;DHT22;3087;48.392;10.836;2023-05-29T11:57:37;31.20;65.20
6114;DHT22;3087;48.392;10.836;2023-05-29T12:00:04;31.60;66.00
6114;DHT22;3087;48.392;10.836;2023-05-29T12:02:33;31.00;63.40
6114;DHT22;3087;48.392;10.836;2023-05-29T12:05:05;30.40;63.90
6114;DHT22;3087;48.392;10.836;2023-05-29T12:07:35;30.10;63.50
6114;DHT22;3087;48.392;10.836;2023-05-29T12:10:16;30.00;63.40
6114;DHT22;3087;48.392;10.836;2023-05-29T12:12:42;30.40;64.00
6114;DHT22;3087;48.392;10.836;2023-05-29T12:15:08;30.30;62.90
6114;DHT22;3087;48.392;10.836;2023-05-29T12:17:35;30.80;63.60
6114;DHT22;3087;48.392;10.836;2023-05-29T12:20:03;31.30;63.40
6114;DHT22;3087;48.392;10.836;2023-05-29T12:22:36;31.10;63.00
6114;DHT22;3087;48.392;10.836;2023-05-29T12:25:06;31.90;64.70
6114;DHT22;3087;48.392;10.836;2023-05-29T12:27:33;32.50;61.90
6114;DHT22;3087;48.392;10.836;2023-05-29T12:30:03;32.30;63.00
6114;DHT22;3087;48.392;10.836;2023-05-29T12:32:40;31.40;62.20
6114;DHT22;3087;48.392;10.836;2023-05-29T12:35:15;30.30;61.90
6114;DHT22;3087;48.392;10.836;2023-05-29T12:42:41;31.50;61.40
6114;DHT22;3087;48.392;10.836;2023-05-29T12:45:08;31.50;62.70
6114;DHT22;3087;48.392;10.836;2023-05-29T12:47:34;31.10;62.90
6114;DHT22;3087;48.392;10.836;2023-05-29T12:50:13;31.00;62.40
6114;DHT22;3087;48.392;10.836;2023-05-29T12:52:40;30.80;61.80
6114;DHT22;3087;48.392;10.836;2023-05-29T12:55:06;30.60;62.00
6114;DHT22;3087;48.392;10.836;2023-05-29T12:57:32;31.30;62.50
6114;DHT22;3087;48.392;10.836;2023-05-29T12:59:57;31.30;61.10
6114;DHT22;3087;48.392;10.836;2023-05-29T13:02:23;31.60;61.40
6114;DHT22;3087;48.392;10.836;2023-05-29T13:04:49;31.50;60.40
6114;DHT22;3087;48.392;10.836;2023-05-29T13:07:15;31.40;60.40
6114;DHT22;3087;48.392;10.836;2023-05-29T13:09:40;30.80;60.10
6114;DHT22;3087;48.392;10.836;2023-05-29T13:12:06;30.80;62.70
6114;DHT22;3087;48.392;10.836;2023-05-29T13:14:32;31.10;62.20
6114;DHT22;3087;48.392;10.836;2023-05-29T13:16:57;31.80;62.30
6114;DHT22;3087;48.392;10.836;2023-05-29T13:19:23;31.80;62.60
6114;DHT22;3087;48.392;10.836;2023-05-29T13:21:48;31.40;61.50
6114;DHT22;3087;48.392;10.836;2023-05-29T13:24:15;31.20;61.50
6114;DHT22;3087;48.392;10.836;2023-05-29T13:26:40;31.00;62.00
6114;DHT22;3087;48.392;10.836;2023-05-29T13:29:06;31.10;60.10
6114;DHT22;3087;48.392;10.836;2023-05-29T13:31:32;31.20;61.40
6114;DHT22;3087;48.392;10.836;2023-05-29T13:33:58;31.30;60.60
6114;DHT22;3087;48.392;10.836;2023-05-29T13:36:23;31.40;60.90
6114;DHT22;3087;48.392;10.836;2023-05-29T13:38:49;31.60;61.00
6114;DHT22;3087;48.392;10.836;2023-05-29T13:41:15;30.60;60.70
6114;DHT22;3087;48.392;10.836;2023-05-29T13:43:40;30.90;61.60
6114;DHT22;3087;48.392;10.836;2023-05-29T13:46:06;30.90;61.50
6114;DHT22;3087;48.392;10.836;2023-05-29T13:48:32;30.50;61.80
6114;DHT22;3087;48.392;10.836;2023-05-29T13:50:59;30.30;61.00
6114;DHT22;3087;48.392;10.836;2023-05-29T13:53:24;30.10;61.30
6114;DHT22;3087;48.392;10.836;2023-05-29T13:55:50;30.10;61.70
6114;DHT22;3087;48.392;10.836;2023-05-29T13:58:15;29.80;61.10
6114;DHT22;3087;48.392;10.836;2023-05-29T14:00:41;29.90;61.10
6114;DHT22;3087;48.392;10.836;2023-05-29T14:03:07;30.00;60.10
6114;DHT22;3087;48.392;10.836;2023-05-29T14:05:33;30.30;60.50
6114;DHT22;3087;48.392;10.836;2023-05-29T14:07:59;30.30;61.30
6114;DHT22;3087;48.392;10.836;2023-05-29T14:10:24;30.80;62.00
6114;DHT22;3087;48.392;10.836;2023-05-29T14:12:50;30.70;61.20
6114;DHT22;3087;48.392;10.836;2023-05-29T14:15:16;30.30;60.90
6114;DHT22;3087;48.392;10.836;2023-05-29T14:17:41;30.20;61.40
6114;DHT22;3087;48.392;10.836;2023-05-29T14:20:07;30.70;60.80
6114;DHT22;3087;48.392;10.836;2023-05-29T14:22:34;30.60;60.90
6114;DHT22;3087;48.392;10.836;2023-05-29T14:25:01;30.90;61.10
6114;DHT22;3087;48.392;10.836;2023-05-29T14:27:26;30.20;60.90
6114;DHT22;3087;48.392;10.836;2023-05-29T14:29:52;30.10;60.80
6114;DHT22;3087;48.392;10.836;2023-05-29T14:32:18;29.80;60.10
6114;DHT22;3087;48.392;10.836;2023-05-29T14:34:43;29.90;60.60
6114;DHT22;3087;48.392;10.836;2023-05-29T14:37:09;30.30;60.70
6114;DHT22;3087;48.392;10.836;2023-05-29T14:39:34;29.90;60.80
6114;DHT22;3087;48.392;10.836;2023-05-29T14:42:00;30.10;60.70
6114;DHT22;3087;48.392;10.836;2023-05-29T14:44:25;30.10;59.90
6114;DHT22;3087;48.392;10.836;2023-05-29T14:46:51;30.40;60.10
6114;DHT22;3087;48.392;10.836;2023-05-29T14:49:17;30.70;59.50
6114;DHT22;3087;48.392;10.836;2023-05-29T14:51:42;30.70;58.60
6114;DHT22;3087;48.392;10.836;2023-05-29T14:54:09;30.80;59.10
6114;DHT22;3087;48.392;10.836;2023-05-29T14:56:37;30.90;59.50
6114;DHT22;3087;48.392;10.836;2023-05-29T14:59:02;30.90;58.80
6114;DHT22;3087;48.392;10.836;2023-05-29T15:01:28;30.60;59.60
6114;DHT22;3087;48.392;10.836;2023-05-29T15:03:54;30.50;60.40
6114;DHT22;3087;48.392;10.836;2023-05-29T15:06:19;29.80;59.00
6114;DHT22;3087;48.392;10.836;2023-05-29T15:08:45;30.00;60.30
6114;DHT22;3087;48.392;10.836;2023-05-29T15:11:11;30.30;59.80
6114;DHT22;3087;48.392;10.836;2023-05-29T15:13:40;29.60;58.90
6114;DHT22;3087;48.392;10.836;2023-05-29T15:16:06;29.60;59.60
6114;DHT22;3087;48.392;10.836;2023-05-29T15:18:33;29.60;59.20
6114;DHT22;3087;48.392;10.836;2023-05-29T15:20:58;29.90;58.90
6114;DHT22;3087;48.392;10.836;2023-05-29T15:23:25;29.90;58.40
6114;DHT22;3087;48.392;10.836;2023-05-29T15:25:51;30.00;57.90
6114;DHT22;3087;48.392;10.836;2023-05-29T15:28:17;30.30;58.40
6114;DHT22;3087;48.392;10.836;2023-05-29T15:30:43;30.10;58.30
6114;DHT22;3087;48.392;10.836;2023-05-29T15:33:08;30.30;58.60
6114;DHT22;3087;48.392;10.836;2023-05-29T15:35:37;30.70;58.20
6114;DHT22;3087;48.392;10.836;2023-05-29T15:38:03;31.20;58.10
6114;DHT22;3087;48.392;10.836;2023-05-29T15:40:29;31.90;58.30
6114;DHT22;3087;48.392;10.836;2023-05-29T15:42:54;30.10;58.00
6114;DHT22;3087;48.392;10.836;2023-05-29T15:45:20;30.80;58.50
6114;DHT22;3087;48.392;10.836;2023-05-29T15:47:45;30.50;57.60
6114;DHT22;3087;48.392;10.836;2023-05-29T15:50:11;30.10;57.40
6114;DHT22;3087;48.392;10.836;2023-05-29T15:52:37;29.90;58.80
6114;DHT22;3087;48.392;10.836;2023-05-29T15:55:02;29.90;57.90
6114;DHT22;3087;48.392;10.836;2023-05-29T15:57:28;30.10;57.20
6114;DHT22;3087;48.392;10.836;2023-05-29T15:59:54;29.90;57.00
6114;DHT22;3087;48.392;10.836;2023-05-29T16:02:19;29.80;56.70
6114;DHT22;3087;48.392;10.836;2023-05-29T16:04:45;29.60;57.20
6114;DHT22;3087;48.392;10.836;2023-05-29T16:07:11;29.70;56.40
6114;DHT22;3087;48.392;10.836;2023-05-29T16:09:36;29.90;56.40
6114;DHT22;3087;48.392;10.836;2023-05-29T16:12:03;29.90;57.40
6114;DHT22;3087;48.392;10.836;2023-05-29T16:14:29;30.20;56.80
6114;DHT22;3087;48.392;10.836;2023-05-29T16:16:54;30.20;57.20